createdAt,value
2023-04-13T00:09:49.794Z,6.2
2023-04-13T00:29:01.735Z,6.1
2023-04-13T00:48:13.837Z,6.1
2023-04-13T01:07:26.657Z,6.4
2023-04-13T01:26:38.943Z,6.7
2023-04-13T01:45:52.299Z,6.8
2023-04-13T02:05:07.460Z,6.9
2023-04-13T02:24:15.279Z,6.9
2023-04-13T02:43:27.887Z,7
2023-04-13T03:02:40.638Z,7.1
2023-04-13T03:21:51.401Z,7.1
2023-04-13T03:41:02.290Z,7.1
2023-04-13T04:00:14.673Z,6.8
2023-04-13T04:19:26.297Z,6.7
2023-04-13T04:38:38.538Z,6.8
2023-04-13T04:57:51.042Z,6.9
2023-04-13T05:17:03.244Z,6.8
2023-04-13T05:36:14.934Z,6.9
2023-04-13T05:55:28.227Z,7.2
2023-04-13T06:14:41.429Z,7.3
2023-04-13T06:33:55.216Z,7.5
2023-04-13T06:53:05.289Z,7.4
2023-04-13T07:12:18.269Z,7.3
2023-04-13T07:31:30.490Z,7.6
2023-04-13T07:50:43.519Z,7.9
2023-04-13T08:09:58.220Z,8.7
2023-04-13T08:29:05.522Z,8.8
2023-04-13T08:48:16.354Z,8.2
2023-04-13T09:07:30.241Z,8.8
2023-04-13T09:26:40.494Z,8.4
2023-04-13T09:45:53.311Z,8.7
2023-04-13T10:05:07.591Z,8.9
2023-04-13T10:24:26.451Z,9.5
2023-04-13T10:43:36.658Z,10.5
2023-04-13T11:02:48.522Z,10.4
2023-04-13T11:21:49.877Z,8.8
2023-04-13T11:41:16.178Z,11.1
2023-04-13T12:00:23.226Z,11.5
2023-04-13T12:19:33.282Z,11.6
2023-04-13T12:38:45.213Z,11.3
2023-04-13T12:57:55.583Z,11.6
2023-04-13T13:17:12.023Z,11.5
2023-04-13T13:36:27.109Z,12.6
2023-04-13T13:55:39.226Z,12.5
2023-04-13T14:14:46.934Z,12.4
2023-04-13T14:33:56.711Z,12.2
2023-04-13T14:53:11.395Z,12.9
2023-04-13T15:12:26.780Z,12.9
2023-04-13T15:31:38.300Z,12.9
2023-04-13T15:50:50.462Z,13.1
2023-04-13T16:10:04.446Z,12.9
2023-04-13T16:29:13.627Z,12.2
2023-04-13T16:48:26.324Z,12.5
2023-04-13T17:07:38.283Z,12.2
2023-04-13T17:26:50.106Z,11.8
2023-04-13T17:45:57.973Z,11.7
2023-04-13T18:05:08.647Z,11.3
2023-04-13T18:24:19.306Z,10.5
2023-04-13T18:43:28.392Z,9.6
2023-04-13T19:02:41.399Z,9.4
2023-04-13T19:21:51.231Z,9
2023-04-13T19:41:01.502Z,8.2
2023-04-13T20:00:14.584Z,8.3
2023-04-13T20:19:24.105Z,7.4
2023-04-13T20:38:33.157Z,7.1
2023-04-13T20:57:47.077Z,6.9
2023-04-13T21:17:00.343Z,7
2023-04-13T21:55:22.587Z,6.9
2023-04-13T22:14:34.318Z,6.4
2023-04-13T22:33:45.477Z,5.3
2023-04-13T22:52:57.753Z,5.6
2023-04-13T23:12:10.397Z,5.4
2023-04-13T23:31:22.516Z,4.9
2023-04-13T23:50:33.595Z,4.5
